createdAt,value
2022-11-27T00:03:14.424Z,15.35
2022-11-27T00:08:16.300Z,10.38
2022-11-27T00:13:18.002Z,9.88
2022-11-27T00:18:19.861Z,10.02
2022-11-27T00:23:21.598Z,12.45
2022-11-27T00:28:23.420Z,9.98
2022-11-27T00:33:25.159Z,10.35
2022-11-27T00:38:26.837Z,10.88
2022-11-27T00:43:28.621Z,15.77
2022-11-27T00:48:30.270Z,13.60
2022-11-27T00:53:32.756Z,9.95
2022-11-27T00:58:37.908Z,14.43
2022-11-27T01:03:39.651Z,13.38
2022-11-27T01:08:42.589Z,8.88
2022-11-27T01:13:44.502Z,12.65
2022-11-27T01:18:47.960Z,11.48
2022-11-27T01:23:50.301Z,12.00
2022-11-27T01:28:53.711Z,10.88
2022-11-27T01:33:57.934Z,14.47
2022-11-27T01:39:00.694Z,15.88
2022-11-27T01:44:25.303Z,18.77
2022-11-27T01:49:32.019Z,16.13
2022-11-27T01:54:43.234Z,14.60
2022-11-27T01:59:48.012Z,22.60
2022-11-27T02:04:49.740Z,19.27
2022-11-27T02:09:51.541Z,18.85
2022-11-27T02:15:17.027Z,14.98
2022-11-27T02:20:30.663Z,21.75
2022-11-27T02:26:04.582Z,21.77
2022-11-27T02:31:10.040Z,17.58
2022-11-27T02:36:17.444Z,20.17
2022-11-27T02:41:28.727Z,21.40
2022-11-27T02:46:30.436Z,21.30
2022-11-27T02:51:41.616Z,21.05
2022-11-27T02:56:44.910Z,22.75
2022-11-27T03:01:52.701Z,17.60
2022-11-27T03:06:57.982Z,17.08
2022-11-27T03:11:59.833Z,21.88
2022-11-27T03:17:11.145Z,19.90
2022-11-27T03:22:13.039Z,21.17
2022-11-27T03:27:19.714Z,21.15
2022-11-27T03:32:21.976Z,19.83
2022-11-27T03:37:24.176Z,17.08
2022-11-27T03:42:50.543Z,22.58
2022-11-27T03:48:33.742Z,19.25
2022-11-27T03:53:53.270Z,17.98
2022-11-27T03:58:57.019Z,20.38
2022-11-27T04:03:58.891Z,19.30
2022-11-27T04:09:00.642Z,22.58
2022-11-27T04:14:02.424Z,20.63
2022-11-27T04:19:04.218Z,18.52
2022-11-27T04:24:06.075Z,21.45
2022-11-27T04:29:07.737Z,24.27
2022-11-27T04:34:09.417Z,20.15
2022-11-27T04:39:11.114Z,17.98
2022-11-27T04:44:13.357Z,16.25
2022-11-27T04:49:15.231Z,16.05
2022-11-27T04:54:17.214Z,16.85
2022-11-27T04:59:18.967Z,16.48
2022-11-27T05:04:21.215Z,19.33
2022-11-27T05:09:23.208Z,19.25
2022-11-27T05:14:29.167Z,15.63
2022-11-27T05:19:31.767Z,14.80
2022-11-27T05:24:33.703Z,16.95
2022-11-27T05:29:35.391Z,18.13
2022-11-27T05:34:37.020Z,13.55
2022-11-27T05:39:38.767Z,17.88
2022-11-27T05:44:40.816Z,13.57
2022-11-27T05:49:42.699Z,17.60
2022-11-27T05:54:44.354Z,13.30
2022-11-27T05:59:46.067Z,14.73
2022-11-27T06:04:47.815Z,15.38
2022-11-27T06:09:49.470Z,14.80
2022-11-27T06:14:51.135Z,11.68
2022-11-27T06:19:52.972Z,12.85
2022-11-27T06:24:54.725Z,14.02
2022-11-27T06:29:56.399Z,15.73
2022-11-27T06:34:58.185Z,12.43
2022-11-27T06:40:00.039Z,12.30
2022-11-27T06:45:01.884Z,11.07
2022-11-27T06:50:04.072Z,12.75
2022-11-27T06:55:05.889Z,8.65
2022-11-27T07:00:08.350Z,12.95
2022-11-27T07:05:10.062Z,14.85
2022-11-27T07:10:11.936Z,10.75
2022-11-27T07:15:13.618Z,12.88
2022-11-27T07:20:15.516Z,12.07
2022-11-27T07:25:17.293Z,15.77
2022-11-27T07:30:19.157Z,18.58
2022-11-27T07:35:20.931Z,15.48
2022-11-27T07:40:22.693Z,15.00
2022-11-27T07:45:24.334Z,12.30
2022-11-27T07:50:26.045Z,15.70
2022-11-27T07:55:27.811Z,13.52
2022-11-27T08:00:29.499Z,16.00
2022-11-27T08:05:34.309Z,13.25
2022-11-27T08:10:37.224Z,16.70
2022-11-27T08:15:38.851Z,16.48
2022-11-27T08:20:40.558Z,25.70
2022-11-27T08:25:42.288Z,15.80
2022-11-27T08:30:44.000Z,16.75
2022-11-27T08:35:49.248Z,19.92
2022-11-27T08:40:59.143Z,13.90
2022-11-27T08:46:04.734Z,20.45
2022-11-27T08:51:12.146Z,20.27
2022-11-27T08:56:19.570Z,16.90
2022-11-27T09:01:27.523Z,16.83
2022-11-27T09:06:31.759Z,19.30
2022-11-27T09:16:36.227Z,21.75
2022-11-27T09:21:38.833Z,21.50
2022-11-27T09:26:40.528Z,19.08
2022-11-27T09:31:42.432Z,18.08
2022-11-27T09:36:44.172Z,18.23
2022-11-27T09:41:54.956Z,22.13
2022-11-27T09:46:59.606Z,25.13
2022-11-27T09:52:07.750Z,20.33
2022-11-27T09:57:16.489Z,18.38
2022-11-27T10:02:24.122Z,15.77
2022-11-27T10:07:53.091Z,20.15
2022-11-27T10:13:18.442Z,18.90
2022-11-27T10:18:23.903Z,18.60
2022-11-27T10:24:01.781Z,15.85
2022-11-27T10:29:06.747Z,17.27
2022-11-27T10:34:26.134Z,16.63
2022-11-27T10:39:42.189Z,14.68
2022-11-27T10:45:08.145Z,14.40
2022-11-27T10:50:18.498Z,12.80
2022-11-27T10:55:51.863Z,14.38
2022-11-27T11:01:09.348Z,12.93
2022-11-27T11:06:23.421Z,15.63
2022-11-27T11:16:35.184Z,12.40
2022-11-27T11:21:42.533Z,10.90
2022-11-27T11:26:59.056Z,8.68
2022-11-27T11:32:14.727Z,10.57
2022-11-27T11:37:40.089Z,14.82
2022-11-27T11:43:00.428Z,11.90
2022-11-27T11:48:19.200Z,8.93
2022-11-27T11:53:45.485Z,12.75
2022-11-27T11:59:03.728Z,10.60
2022-11-27T12:04:41.739Z,9.93
2022-11-27T12:10:01.978Z,11.77
2022-11-27T12:15:06.933Z,13.77
2022-11-27T12:21:00.432Z,12.82
2022-11-27T12:26:16.895Z,8.57
2022-11-27T12:31:18.664Z,10.18
2022-11-27T12:36:27.983Z,9.45
2022-11-27T12:41:44.130Z,8.85
2022-11-27T12:46:48.909Z,7.93
2022-11-27T12:52:01.050Z,8.02
2022-11-27T12:57:10.085Z,8.95
2022-11-27T13:02:20.526Z,10.02
2022-11-27T13:07:28.236Z,8.75
2022-11-27T13:12:35.426Z,9.70
2022-11-27T13:17:42.323Z,6.57
2022-11-27T13:22:44.923Z,7.72
2022-11-27T13:27:50.354Z,8.85
2022-11-27T13:32:58.011Z,8.45
2022-11-27T13:38:13.555Z,7.82
2022-11-27T13:43:43.413Z,9.07
2022-11-27T13:49:03.565Z,9.73
2022-11-27T13:54:16.038Z,10.38
2022-11-27T13:59:21.534Z,9.18
2022-11-27T14:04:23.354Z,9.40
2022-11-27T14:09:38.386Z,6.75
2022-11-27T14:14:42.567Z,8.95
2022-11-27T14:19:46.173Z,8.32
2022-11-27T14:24:55.602Z,7.82
2022-11-27T14:29:57.446Z,10.20
2022-11-27T14:34:59.144Z,9.45
2022-11-27T14:40:00.952Z,9.57
2022-11-27T14:45:08.603Z,9.82
2022-11-27T14:50:14.353Z,8.65
2022-11-27T14:55:16.971Z,10.00
2022-11-27T15:00:25.176Z,10.23
2022-11-27T15:05:29.682Z,7.85
2022-11-27T15:10:40.311Z,11.27
2022-11-27T15:15:44.100Z,9.10
2022-11-27T15:20:46.681Z,9.23
2022-11-27T15:26:03.052Z,10.40
2022-11-27T15:31:28.845Z,9.88
2022-11-27T15:36:43.063Z,11.07
2022-11-27T15:41:59.939Z,12.40
2022-11-27T15:47:03.420Z,12.43
2022-11-27T15:52:05.135Z,11.23
2022-11-27T15:57:06.866Z,14.52
2022-11-27T16:02:17.249Z,9.55
2022-11-27T16:07:19.637Z,12.82
2022-11-27T16:12:21.399Z,11.73
2022-11-27T16:17:23.179Z,12.18
2022-11-27T16:22:24.917Z,12.15
2022-11-27T16:27:26.574Z,9.88
2022-11-27T16:32:28.228Z,10.63
2022-11-27T16:37:29.892Z,10.85
2022-11-27T16:42:31.609Z,12.15
2022-11-27T16:47:33.996Z,10.55
2022-11-27T16:52:36.013Z,9.07
2022-11-27T16:57:37.780Z,10.38
2022-11-27T17:02:39.464Z,11.70
2022-11-27T17:07:43.808Z,11.50
2022-11-27T17:12:45.619Z,8.70
2022-11-27T17:17:47.359Z,15.60
2022-11-27T17:22:49.125Z,15.25
2022-11-27T17:27:52.915Z,10.85
2022-11-27T17:32:56.310Z,14.45
2022-11-27T17:37:57.973Z,10.60
2022-11-27T17:42:59.814Z,13.45
2022-11-27T17:48:02.185Z,18.35
2022-11-27T17:53:03.857Z,16.65
2022-11-27T17:58:10.814Z,14.85
2022-11-27T18:03:12.470Z,13.35
2022-11-27T18:08:19.161Z,19.63
2022-11-27T18:13:20.818Z,17.48
2022-11-27T18:18:22.977Z,19.20
2022-11-27T18:23:24.599Z,20.27
2022-11-27T18:28:27.869Z,21.90
2022-11-27T18:33:29.610Z,18.10
2022-11-27T18:38:32.705Z,18.27
2022-11-27T18:43:35.335Z,18.80
2022-11-27T18:48:39.132Z,17.88
2022-11-27T18:53:41.889Z,20.38
2022-11-27T18:58:45.606Z,16.52
2022-11-27T19:03:47.878Z,16.55
2022-11-27T19:08:49.975Z,15.45
2022-11-27T19:13:55.061Z,16.05
2022-11-27T19:18:58.430Z,16.70
2022-11-27T19:24:10.615Z,13.27
2022-11-27T19:29:14.495Z,16.45
2022-11-27T19:34:17.190Z,16.40
2022-11-27T19:39:19.367Z,18.77
2022-11-27T19:44:32.716Z,17.02
2022-11-27T19:49:34.408Z,14.82
2022-11-27T19:54:36.120Z,17.88
2022-11-27T19:59:39.706Z,13.85
2022-11-27T20:04:42.097Z,14.63
2022-11-27T20:09:45.046Z,11.77
2022-11-27T20:14:46.814Z,13.20
2022-11-27T20:19:48.600Z,13.80
2022-11-27T20:25:17.326Z,14.50
2022-11-27T20:30:12.279Z,11.82
2022-11-27T20:35:17.431Z,11.93
2022-11-27T20:40:20.369Z,15.05
2022-11-27T20:45:22.129Z,12.95
2022-11-27T20:50:23.867Z,11.85
2022-11-27T20:55:25.884Z,11.98
2022-11-27T21:00:27.524Z,13.23
2022-11-27T21:05:29.241Z,14.88
2022-11-27T21:10:30.855Z,13.30
2022-11-27T21:15:32.610Z,13.93
2022-11-27T21:20:34.487Z,11.57
2022-11-27T21:25:38.269Z,10.65
2022-11-27T21:30:40.090Z,10.00
2022-11-27T21:35:41.892Z,12.65
2022-11-27T21:40:44.631Z,10.98
2022-11-27T21:45:47.642Z,8.65
2022-11-27T21:50:49.432Z,9.15
2022-11-27T21:55:51.207Z,9.88
2022-11-27T22:00:53.282Z,11.07
2022-11-27T22:06:04.474Z,10.27
2022-11-27T22:17:28.592Z,10.90
2022-11-27T22:22:30.223Z,11.80
2022-11-27T22:27:31.988Z,12.13
2022-11-27T22:32:33.659Z,13.13
2022-11-27T22:37:35.270Z,12.70
2022-11-27T22:42:36.984Z,13.27
2022-11-27T22:47:38.595Z,11.85
2022-11-27T22:52:40.291Z,12.02
2022-11-27T22:57:42.009Z,10.27
2022-11-27T23:02:43.755Z,10.82
2022-11-27T23:07:45.464Z,9.60
2022-11-27T23:12:47.088Z,10.00
2022-11-27T23:17:49.690Z,9.93
2022-11-27T23:22:52.695Z,11.40
2022-11-27T23:27:54.291Z,11.35
2022-11-27T23:32:56.002Z,10.18
2022-11-27T23:37:58.024Z,13.02
2022-11-27T23:42:59.723Z,12.73
2022-11-27T23:48:01.404Z,12.18
2022-11-27T23:53:02.985Z,12.13
2022-11-27T23:58:04.632Z,13.35
